sensor_id;sensor_type;location;lat;lon;timestamp;pressure;altitude;pressure_sealevel;temperature;humidity
81905;BME280;71370;-33.792;151.032;2023-07-22T00:00:58;101705.06;;;12.28;42.32
81905;BME280;71370;-33.792;151.032;2023-07-22T00:02:05;101702.92;;;12.32;42.04
81905;BME280;71370;-33.792;151.032;2023-07-22T00:03:12;101702.02;;;12.37;41.80
81905;BME280;71370;-33.792;151.032;2023-07-22T00:04:19;101697.95;;;12.40;41.82
81905;BME280;71370;-33.792;151.032;2023-07-22T00:05:26;101696.50;;;12.43;42.14
81905;BME280;71370;-33.792;151.032;2023-07-22T00:06:34;101693.14;;;12.48;42.09
81905;BME280;71370;-33.792;151.032;2023-07-22T00:07:41;101691.86;;;12.53;41.84
81905;BME280;71370;-33.792;151.032;2023-07-22T00:08:50;101693.61;;;12.57;41.55
81905;BME280;71370;-33.792;151.032;2023-07-22T00:09:57;101692.69;;;12.61;41.98
81905;BME280;71370;-33.792;151.032;2023-07-22T00:11:05;101691.79;;;12.65;41.93
81905;BME280;71370;-33.792;151.032;2023-07-22T00:12:12;101690.88;;;12.70;41.17
81905;BME280;71370;-33.792;151.032;2023-07-22T00:13:19;101692.08;;;12.73;41.46
81905;BME280;71370;-33.792;151.032;2023-07-22T00:14:26;101689.75;;;12.77;41.23
81905;BME280;71370;-33.792;151.032;2023-07-22T00:15:33;101689.92;;;12.80;40.87
81905;BME280;71370;-33.792;151.032;2023-07-22T00:16:41;101686.73;;;12.82;41.29
81905;BME280;71370;-33.792;151.032;2023-07-22T00:17:49;101685.98;;;12.86;41.43
81905;BME280;71370;-33.792;151.032;2023-07-22T00:18:56;101685.95;;;12.91;41.41
81905;BME280;71370;-33.792;151.032;2023-07-22T00:20:04;101685.03;;;12.95;41.25
81905;BME280;71370;-33.792;151.032;2023-07-22T00:21:11;101684.81;;;13.00;41.57
81905;BME280;71370;-33.792;151.032;2023-07-22T00:22:18;101686.55;;;13.05;40.97
81905;BME280;71370;-33.792;151.032;2023-07-22T00:23:26;101685.09;;;13.09;40.98
81905;BME280;71370;-33.792;151.032;2023-07-22T00:24:33;101683.82;;;13.14;41.01
81905;BME280;71370;-33.792;151.032;2023-07-22T00:25:40;101683.77;;;13.19;41.33
81905;BME280;71370;-33.792;151.032;2023-07-22T00:26:47;101680.19;;;13.24;41.10
81905;BME280;71370;-33.792;151.032;2023-07-22T00:27:56;101678.20;;;13.30;41.21
81905;BME280;71370;-33.792;151.032;2023-07-22T00:29:03;101675.00;;;13.34;40.73
81905;BME280;71370;-33.792;151.032;2023-07-22T00:30:11;101677.43;;;13.38;41.10
81905;BME280;71370;-33.792;151.032;2023-07-22T00:31:18;101681.27;;;13.44;41.08
81905;BME280;71370;-33.792;151.032;2023-07-22T00:32:25;101679.09;;;13.50;40.86
81905;BME280;71370;-33.792;151.032;2023-07-22T00:33:32;101678.69;;;13.55;40.62
81905;BME280;71370;-33.792;151.032;2023-07-22T00:34:39;101672.46;;;13.58;40.58
81905;BME280;71370;-33.792;151.032;2023-07-22T00:35:50;101671.20;;;13.60;40.32
81905;BME280;71370;-33.792;151.032;2023-07-22T00:36:58;101668.52;;;13.63;40.39
81905;BME280;71370;-33.792;151.032;2023-07-22T00:38:06;101667.77;;;13.67;40.94
81905;BME280;71370;-33.792;151.032;2023-07-22T00:39:13;101662.40;;;13.72;41.07
81905;BME280;71370;-33.792;151.032;2023-07-22T00:40:20;101659.34;;;13.77;41.04
81905;BME280;71370;-33.792;151.032;2023-07-22T00:41:29;101660.88;;;13.82;40.42
81905;BME280;71370;-33.792;151.032;2023-07-22T00:42:36;101662.42;;;13.85;40.60
81905;BME280;71370;-33.792;151.032;2023-07-22T00:43:43;101660.27;;;13.89;40.13
81905;BME280;71370;-33.792;151.032;2023-07-22T00:44:50;101656.01;;;13.90;40.14
81905;BME280;71370;-33.792;151.032;2023-07-22T00:45:58;101659.34;;;13.92;40.65
81905;BME280;71370;-33.792;151.032;2023-07-22T00:47:06;101658.24;;;13.95;40.48
81905;BME280;71370;-33.792;151.032;2023-07-22T00:48:14;101654.67;;;13.97;39.99
81905;BME280;71370;-33.792;151.032;2023-07-22T00:49:22;101658.36;;;14.00;40.15
81905;BME280;71370;-33.792;151.032;2023-07-22T00:50:30;101654.80;;;14.01;39.80
81905;BME280;71370;-33.792;151.032;2023-07-22T00:51:38;101650.70;;;14.04;40.51
81905;BME280;71370;-33.792;151.032;2023-07-22T00:52:45;101648.17;;;14.07;40.27
81905;BME280;71370;-33.792;151.032;2023-07-22T00:53:53;101646.73;;;14.10;40.34
81905;BME280;71370;-33.792;151.032;2023-07-22T00:55:00;101641.02;;;14.13;40.78
81905;BME280;71370;-33.792;151.032;2023-07-22T00:56:07;101640.45;;;14.16;40.32
81905;BME280;71370;-33.792;151.032;2023-07-22T00:57:15;101639.51;;;14.20;40.80
81905;BME280;71370;-33.792;151.032;2023-07-22T00:58:23;101639.98;;;14.24;40.57
81905;BME280;71370;-33.792;151.032;2023-07-22T00:59:30;101634.11;;;14.26;40.33
81905;BME280;71370;-33.792;151.032;2023-07-22T01:00:37;101631.41;;;14.30;40.24
81905;BME280;71370;-33.792;151.032;2023-07-22T01:01:44;101626.23;;;14.34;40.52
81905;BME280;71370;-33.792;151.032;2023-07-22T01:02:51;101621.56;;;14.37;40.47
81905;BME280;71370;-33.792;151.032;2023-07-22T01:03:59;101624.34;;;14.41;40.77
81905;BME280;71370;-33.792;151.032;2023-07-22T01:05:07;101618.07;;;14.46;40.55
81905;BME280;71370;-33.792;151.032;2023-07-22T01:06:16;101616.05;;;14.50;40.42
81905;BME280;71370;-33.792;151.032;2023-07-22T01:07:24;101613.69;;;14.55;40.47
81905;BME280;71370;-33.792;151.032;2023-07-22T01:08:31;101612.59;;;14.60;40.61
81905;BME280;71370;-33.792;151.032;2023-07-22T01:09:40;101607.56;;;14.64;40.33
81905;BME280;71370;-33.792;151.032;2023-07-22T01:10:47;101605.71;;;14.68;40.46
81905;BME280;71370;-33.792;151.032;2023-07-22T01:11:54;101598.41;;;14.71;40.13
81905;BME280;71370;-33.792;151.032;2023-07-22T01:13:01;101600.11;;;14.75;40.29
81905;BME280;71370;-33.792;151.032;2023-07-22T01:14:09;101594.04;;;14.78;39.67
81905;BME280;71370;-33.792;151.032;2023-07-22T01:15:16;101593.84;;;14.79;39.98
81905;BME280;71370;-33.792;151.032;2023-07-22T01:16:25;101594.00;;;14.81;39.71
81905;BME280;71370;-33.792;151.032;2023-07-22T01:17:33;101589.02;;;14.83;40.07
81905;BME280;71370;-33.792;151.032;2023-07-22T01:18:42;101590.03;;;14.86;39.94
81905;BME280;71370;-33.792;151.032;2023-07-22T01:19:49;101588.52;;;14.89;40.23
81905;BME280;71370;-33.792;151.032;2023-07-22T01:20:57;101591.80;;;14.95;40.12
81905;BME280;71370;-33.792;151.032;2023-07-22T01:22:06;101588.52;;;15.00;39.73
81905;BME280;71370;-33.792;151.032;2023-07-22T01:23:16;101591.30;;;15.03;39.58
81905;BME280;71370;-33.792;151.032;2023-07-22T01:24:24;101590.00;;;15.07;39.68
81905;BME280;71370;-33.792;151.032;2023-07-22T01:25:32;101590.80;;;15.10;39.50
81905;BME280;71370;-33.792;151.032;2023-07-22T01:26:39;101588.65;;;15.12;39.26
81905;BME280;71370;-33.792;151.032;2023-07-22T01:27:46;101584.38;;;15.13;39.61
81905;BME280;71370;-33.792;151.032;2023-07-22T01:29:04;101577.05;;;15.16;39.88
81905;BME280;71370;-33.792;151.032;2023-07-22T01:30:12;101570.93;;;15.22;39.82
81905;BME280;71370;-33.792;151.032;2023-07-22T01:31:20;101569.98;;;15.25;39.64
81905;BME280;71370;-33.792;151.032;2023-07-22T01:32:27;101569.23;;;15.27;39.61
81905;BME280;71370;-33.792;151.032;2023-07-22T01:33:34;101567.42;;;15.29;39.35
81905;BME280;71370;-33.792;151.032;2023-07-22T01:34:41;101566.85;;;15.31;39.32
81905;BME280;71370;-33.792;151.032;2023-07-22T01:35:48;101568.04;;;15.33;39.16
81905;BME280;71370;-33.792;151.032;2023-07-22T01:36:56;101563.74;;;15.36;39.29
81905;BME280;71370;-33.792;151.032;2023-07-22T01:38:03;101562.80;;;15.39;39.28
81905;BME280;71370;-33.792;151.032;2023-07-22T01:39:10;101564.51;;;15.43;39.63
81905;BME280;71370;-33.792;151.032;2023-07-22T01:40:18;101560.52;;;15.47;39.26
81905;BME280;71370;-33.792;151.032;2023-07-22T01:41:25;101559.17;;;15.51;39.15
81905;BME280;71370;-33.792;151.032;2023-07-22T01:42:32;101551.12;;;15.55;39.33
81905;BME280;71370;-33.792;151.032;2023-07-22T01:43:39;101548.72;;;15.60;39.21
81905;BME280;71370;-33.792;151.032;2023-07-22T01:44:46;101548.28;;;15.63;38.97
81905;BME280;71370;-33.792;151.032;2023-07-22T01:45:53;101542.73;;;15.66;38.80
81905;BME280;71370;-33.792;151.032;2023-07-22T01:47:02;101538.42;;;15.68;38.95
81905;BME280;71370;-33.792;151.032;2023-07-22T01:48:10;101542.09;;;15.72;39.44
81905;BME280;71370;-33.792;151.032;2023-07-22T01:49:17;101542.20;;;15.75;38.93
81905;BME280;71370;-33.792;151.032;2023-07-22T01:50:24;101539.51;;;15.78;38.93
81905;BME280;71370;-33.792;151.032;2023-07-22T01:51:31;101534.52;;;15.78;38.85
81905;BME280;71370;-33.792;151.032;2023-07-22T01:52:38;101536.96;;;15.80;38.74
81905;BME280;71370;-33.792;151.032;2023-07-22T01:53:45;101534.61;;;15.82;38.49
81905;BME280;71370;-33.792;151.032;2023-07-22T01:54:52;101528.35;;;15.84;38.93
81905;BME280;71370;-33.792;151.032;2023-07-22T01:55:59;101528.06;;;15.89;38.94
81905;BME280;71370;-33.792;151.032;2023-07-22T01:57:06;101527.61;;;15.93;38.75
81905;BME280;71370;-33.792;151.032;2023-07-22T01:58:13;101530.05;;;15.95;38.77
81905;BME280;71370;-33.792;151.032;2023-07-22T01:59:21;101526.34;;;15.95;38.62
81905;BME280;71370;-33.792;151.032;2023-07-22T02:00:28;101526.66;;;15.96;38.59
81905;BME280;71370;-33.792;151.032;2023-07-22T02:01:35;101530.23;;;15.95;38.53
81905;BME280;71370;-33.792;151.032;2023-07-22T02:02:43;101526.48;;;15.95;38.75
81905;BME280;71370;-33.792;151.032;2023-07-22T02:03:50;101530.17;;;15.98;38.58
81905;BME280;71370;-33.792;151.032;2023-07-22T02:04:57;101524.98;;;16.00;38.79
81905;BME280;71370;-33.792;151.032;2023-07-22T02:06:05;101519.08;;;16.02;38.62
81905;BME280;71370;-33.792;151.032;2023-07-22T02:07:12;101514.59;;;16.04;38.21
81905;BME280;71370;-33.792;151.032;2023-07-22T02:08:20;101515.80;;;16.05;38.46
81905;BME280;71370;-33.792;151.032;2023-07-22T02:09:27;101514.31;;;16.08;38.78
81905;BME280;71370;-33.792;151.032;2023-07-22T02:10:34;101514.98;;;16.09;38.59
81905;BME280;71370;-33.792;151.032;2023-07-22T02:11:41;101513.16;;;16.11;38.74
81905;BME280;71370;-33.792;151.032;2023-07-22T02:12:48;101514.71;;;16.13;38.69
81905;BME280;71370;-33.792;151.032;2023-07-22T02:13:55;101509.86;;;16.16;38.46
81905;BME280;71370;-33.792;151.032;2023-07-22T02:15:03;101506.48;;;16.17;38.57
81905;BME280;71370;-33.792;151.032;2023-07-22T02:16:10;101506.36;;;16.22;38.55
81905;BME280;71370;-33.792;151.032;2023-07-22T02:17:20;101504.70;;;16.24;38.39
81905;BME280;71370;-33.792;151.032;2023-07-22T02:18:27;101497.84;;;16.29;38.51
81905;BME280;71370;-33.792;151.032;2023-07-22T02:19:35;101496.83;;;16.34;38.43
81905;BME280;71370;-33.792;151.032;2023-07-22T02:20:43;101486.40;;;16.39;38.05
81905;BME280;71370;-33.792;151.032;2023-07-22T02:21:50;101488.06;;;16.43;37.78
81905;BME280;71370;-33.792;151.032;2023-07-22T02:22:57;101485.39;;;16.44;37.70
81905;BME280;71370;-33.792;151.032;2023-07-22T02:24:04;101486.73;;;16.47;38.22
81905;BME280;71370;-33.792;151.032;2023-07-22T02:25:11;101479.20;;;16.49;38.07
81905;BME280;71370;-33.792;151.032;2023-07-22T02:26:19;101475.96;;;16.52;37.54
81905;BME280;71370;-33.792;151.032;2023-07-22T02:27:26;101476.78;;;16.54;37.77
81905;BME280;71370;-33.792;151.032;2023-07-22T02:28:33;101474.29;;;16.54;38.13
81905;BME280;71370;-33.792;151.032;2023-07-22T02:29:40;101481.66;;;16.58;37.71
81905;BME280;71370;-33.792;151.032;2023-07-22T02:30:54;101481.27;;;16.59;37.64
81905;BME280;71370;-33.792;151.032;2023-07-22T02:32:01;101477.69;;;16.60;37.68
81905;BME280;71370;-33.792;151.032;2023-07-22T02:33:08;101472.35;;;16.60;37.76
81905;BME280;71370;-33.792;151.032;2023-07-22T02:34:15;101474.06;;;16.63;37.87
81905;BME280;71370;-33.792;151.032;2023-07-22T02:35:22;101470.40;;;16.67;38.11
81905;BME280;71370;-33.792;151.032;2023-07-22T02:36:30;101468.26;;;16.74;37.85
81905;BME280;71370;-33.792;151.032;2023-07-22T02:37:38;101467.59;;;16.79;37.59
81905;BME280;71370;-33.792;151.032;2023-07-22T02:38:45;101466.42;;;16.83;37.78
81905;BME280;71370;-33.792;151.032;2023-07-22T02:39:54;101462.96;;;16.86;37.56
81905;BME280;71370;-33.792;151.032;2023-07-22T02:41:03;101463.27;;;16.88;37.41
81905;BME280;71370;-33.792;151.032;2023-07-22T02:42:12;101459.02;;;16.88;37.22
81905;BME280;71370;-33.792;151.032;2023-07-22T02:43:19;101459.95;;;16.87;37.08
81905;BME280;71370;-33.792;151.032;2023-07-22T02:44:26;101456.10;;;16.84;37.18
81905;BME280;71370;-33.792;151.032;2023-07-22T02:45:34;101456.84;;;16.83;36.86
81905;BME280;71370;-33.792;151.032;2023-07-22T02:46:41;101451.34;;;16.83;37.41
81905;BME280;71370;-33.792;151.032;2023-07-22T02:47:48;101451.48;;;16.84;37.58
81905;BME280;71370;-33.792;151.032;2023-07-22T02:48:55;101445.36;;;16.87;37.76
81905;BME280;71370;-33.792;151.032;2023-07-22T02:50:03;101444.52;;;16.92;37.83
81905;BME280;71370;-33.792;151.032;2023-07-22T02:51:11;101442.58;;;16.98;37.56
81905;BME280;71370;-33.792;151.032;2023-07-22T02:52:18;101442.88;;;17.00;37.55
81905;BME280;71370;-33.792;151.032;2023-07-22T02:53:25;101443.55;;;17.01;37.19
81905;BME280;71370;-33.792;151.032;2023-07-22T02:54:38;101439.27;;;17.02;37.37
81905;BME280;71370;-33.792;151.032;2023-07-22T02:55:46;101443.45;;;17.04;37.07
81905;BME280;71370;-33.792;151.032;2023-07-22T02:56:54;101436.69;;;17.04;37.13
81905;BME280;71370;-33.792;151.032;2023-07-22T02:58:01;101434.92;;;17.04;37.38
81905;BME280;71370;-33.792;151.032;2023-07-22T02:59:09;101437.88;;;17.06;37.27
81905;BME280;71370;-33.792;151.032;2023-07-22T03:00:18;101434.23;;;17.09;37.47
81905;BME280;71370;-33.792;151.032;2023-07-22T03:01:31;101433.09;;;17.12;37.38
81905;BME280;71370;-33.792;151.032;2023-07-22T03:02:41;101434.06;;;17.16;37.55
81905;BME280;71370;-33.792;151.032;2023-07-22T03:03:49;101432.92;;;17.18;37.18
81905;BME280;71370;-33.792;151.032;2023-07-22T03:04:56;101431.83;;;17.19;37.02
81905;BME280;71370;-33.792;151.032;2023-07-22T03:06:03;101432.35;;;17.19;37.13
81905;BME280;71370;-33.792;151.032;2023-07-22T03:07:10;101429.85;;;17.20;37.31
81905;BME280;71370;-33.792;151.032;2023-07-22T03:08:18;101431.45;;;17.20;37.15
81905;BME280;71370;-33.792;151.032;2023-07-22T03:09:25;101436.44;;;17.19;36.92
81905;BME280;71370;-33.792;151.032;2023-07-22T03:10:32;101430.09;;;17.18;36.86
81905;BME280;71370;-33.792;151.032;2023-07-22T03:11:39;101429.08;;;17.16;37.00
81905;BME280;71370;-33.792;151.032;2023-07-22T03:12:47;101425.55;;;17.16;36.95
81905;BME280;71370;-33.792;151.032;2023-07-22T03:13:54;101426.92;;;17.17;37.26
81905;BME280;71370;-33.792;151.032;2023-07-22T03:15:01;101425.77;;;17.19;37.14
81905;BME280;71370;-33.792;151.032;2023-07-22T03:16:10;101429.78;;;17.22;37.20
81905;BME280;71370;-33.792;151.032;2023-07-22T03:17:19;101426.17;;;17.24;36.99
81905;BME280;71370;-33.792;151.032;2023-07-22T03:18:26;101423.29;;;17.19;37.30
81905;BME280;71370;-33.792;151.032;2023-07-22T03:19:33;101428.78;;;17.20;37.21
81905;BME280;71370;-33.792;151.032;2023-07-22T03:20:40;101426.93;;;17.22;37.14
81905;BME280;71370;-33.792;151.032;2023-07-22T03:21:47;101420.50;;;17.23;37.30
81905;BME280;71370;-33.792;151.032;2023-07-22T03:22:55;101417.64;;;17.24;37.00
81905;BME280;71370;-33.792;151.032;2023-07-22T03:24:02;101415.13;;;17.25;37.19
81905;BME280;71370;-33.792;151.032;2023-07-22T03:25:10;101420.58;;;17.26;37.04
81905;BME280;71370;-33.792;151.032;2023-07-22T03:26:17;101416.45;;;17.28;37.22
81905;BME280;71370;-33.792;151.032;2023-07-22T03:27:24;101413.35;;;17.30;37.33
81905;BME280;71370;-33.792;151.032;2023-07-22T03:28:31;101412.02;;;17.33;37.43
81905;BME280;71370;-33.792;151.032;2023-07-22T03:29:39;101411.71;;;17.38;37.34
81905;BME280;71370;-33.792;151.032;2023-07-22T03:30:46;101416.58;;;17.41;36.98
81905;BME280;71370;-33.792;151.032;2023-07-22T03:31:53;101418.67;;;17.43;36.66
81905;BME280;71370;-33.792;151.032;2023-07-22T03:33:00;101421.65;;;17.44;36.57
81905;BME280;71370;-33.792;151.032;2023-07-22T03:34:07;101422.52;;;17.44;36.77
81905;BME280;71370;-33.792;151.032;2023-07-22T03:35:14;101423.85;;;17.42;36.73
81905;BME280;71370;-33.792;151.032;2023-07-22T03:36:22;101420.89;;;17.40;36.62
81905;BME280;71370;-33.792;151.032;2023-07-22T03:37:29;101420.41;;;17.32;36.81
81905;BME280;71370;-33.792;151.032;2023-07-22T03:38:36;101418.83;;;17.26;37.02
81905;BME280;71370;-33.792;151.032;2023-07-22T03:39:43;101423.30;;;17.25;37.09
81905;BME280;71370;-33.792;151.032;2023-07-22T03:40:50;101417.76;;;17.26;37.15
81905;BME280;71370;-33.792;151.032;2023-07-22T03:41:59;101418.08;;;17.27;37.02
81905;BME280;71370;-33.792;151.032;2023-07-22T03:43:06;101412.80;;;17.31;37.05
81905;BME280;71370;-33.792;151.032;2023-07-22T03:44:13;101409.55;;;17.38;36.93
81905;BME280;71370;-33.792;151.032;2023-07-22T03:45:21;101407.84;;;17.42;36.98
81905;BME280;71370;-33.792;151.032;2023-07-22T03:46:28;101411.12;;;17.45;36.97
81905;BME280;71370;-33.792;151.032;2023-07-22T03:47:35;101410.95;;;17.45;37.13
81905;BME280;71370;-33.792;151.032;2023-07-22T03:48:42;101412.44;;;17.43;36.95
81905;BME280;71370;-33.792;151.032;2023-07-22T03:49:49;101415.88;;;17.40;36.92
81905;BME280;71370;-33.792;151.032;2023-07-22T03:50:56;101414.27;;;17.41;37.01
81905;BME280;71370;-33.792;151.032;2023-07-22T03:52:03;101410.80;;;17.44;37.28
81905;BME280;71370;-33.792;151.032;2023-07-22T03:53:10;101411.92;;;17.42;37.06
81905;BME280;71370;-33.792;151.032;2023-07-22T03:54:17;101414.35;;;17.39;37.45
81905;BME280;71370;-33.792;151.032;2023-07-22T03:55:25;101408.80;;;17.34;37.54
81905;BME280;71370;-33.792;151.032;2023-07-22T03:56:32;101411.79;;;17.29;37.37
81905;BME280;71370;-33.792;151.032;2023-07-22T03:57:39;101410.26;;;17.27;37.37
81905;BME280;71370;-33.792;151.032;2023-07-22T03:58:46;101413.67;;;17.26;37.39
81905;BME280;71370;-33.792;151.032;2023-07-22T03:59:56;101412.00;;;17.22;37.22
81905;BME280;71370;-33.792;151.032;2023-07-22T04:01:04;101412.46;;;17.19;37.45
81905;BME280;71370;-33.792;151.032;2023-07-22T04:02:11;101413.42;;;17.16;37.44
81905;BME280;71370;-33.792;151.032;2023-07-22T04:03:18;101414.16;;;17.09;37.47
81905;BME280;71370;-33.792;151.032;2023-07-22T04:04:25;101414.94;;;17.01;37.67
81905;BME280;71370;-33.792;151.032;2023-07-22T04:05:32;101413.52;;;16.95;37.94
81905;BME280;71370;-33.792;151.032;2023-07-22T04:06:39;101415.65;;;16.89;38.24
81905;BME280;71370;-33.792;151.032;2023-07-22T04:07:46;101412.83;;;16.82;38.37
81905;BME280;71370;-33.792;151.032;2023-07-22T04:08:53;101411.42;;;16.74;38.26
81905;BME280;71370;-33.792;151.032;2023-07-22T04:10:00;101407.04;;;16.65;38.19
81905;BME280;71370;-33.792;151.032;2023-07-22T04:11:07;101408.69;;;16.57;38.31
81905;BME280;71370;-33.792;151.032;2023-07-22T04:12:14;101410.79;;;16.52;38.46
81905;BME280;71370;-33.792;151.032;2023-07-22T04:13:22;101411.11;;;16.47;38.49
81905;BME280;71370;-33.792;151.032;2023-07-22T04:14:30;101411.05;;;16.42;38.70
81905;BME280;71370;-33.792;151.032;2023-07-22T04:15:37;101412.09;;;16.37;38.80
81905;BME280;71370;-33.792;151.032;2023-07-22T04:16:44;101412.72;;;16.33;38.95
81905;BME280;71370;-33.792;151.032;2023-07-22T04:17:51;101407.79;;;16.31;39.13
81905;BME280;71370;-33.792;151.032;2023-07-22T04:18:58;101411.52;;;16.31;39.20
81905;BME280;71370;-33.792;151.032;2023-07-22T04:20:06;101410.21;;;16.34;39.40
81905;BME280;71370;-33.792;151.032;2023-07-22T04:21:14;101412.66;;;16.35;38.77
81905;BME280;71370;-33.792;151.032;2023-07-22T04:22:22;101411.52;;;16.31;38.98
81905;BME280;71370;-33.792;151.032;2023-07-22T04:23:29;101412.52;;;16.27;39.14
81905;BME280;71370;-33.792;151.032;2023-07-22T04:24:37;101407.08;;;16.25;39.15
81905;BME280;71370;-33.792;151.032;2023-07-22T04:25:44;101412.80;;;16.23;39.16
81905;BME280;71370;-33.792;151.032;2023-07-22T04:26:51;101410.17;;;16.22;39.08
81905;BME280;71370;-33.792;151.032;2023-07-22T04:27:59;101415.17;;;16.21;39.29
81905;BME280;71370;-33.792;151.032;2023-07-22T04:29:06;101413.45;;;16.19;39.28
81905;BME280;71370;-33.792;151.032;2023-07-22T04:30:13;101415.38;;;16.20;39.05
81905;BME280;71370;-33.792;151.032;2023-07-22T04:31:26;101416.14;;;16.18;39.18
81905;BME280;71370;-33.792;151.032;2023-07-22T04:32:34;101415.30;;;16.16;39.27
81905;BME280;71370;-33.792;151.032;2023-07-22T04:33:41;101415.70;;;16.14;39.31
81905;BME280;71370;-33.792;151.032;2023-07-22T04:34:48;101413.96;;;16.12;39.12
81905;BME280;71370;-33.792;151.032;2023-07-22T04:35:57;101415.23;;;16.11;39.34
81905;BME280;71370;-33.792;151.032;2023-07-22T04:37:05;101414.73;;;16.10;39.35
81905;BME280;71370;-33.792;151.032;2023-07-22T04:38:12;101415.67;;;16.08;39.37
81905;BME280;71370;-33.792;151.032;2023-07-22T04:39:19;101416.59;;;16.07;39.39
81905;BME280;71370;-33.792;151.032;2023-07-22T04:40:26;101415.23;;;16.05;39.41
81905;BME280;71370;-33.792;151.032;2023-07-22T04:41:34;101412.79;;;16.03;39.59
81905;BME280;71370;-33.792;151.032;2023-07-22T04:42:41;101417.43;;;16.02;39.65
81905;BME280;71370;-33.792;151.032;2023-07-22T04:43:49;101415.35;;;16.00;39.38
81905;BME280;71370;-33.792;151.032;2023-07-22T04:44:56;101411.14;;;15.98;39.47
81905;BME280;71370;-33.792;151.032;2023-07-22T04:46:03;101416.12;;;15.97;39.53
81905;BME280;71370;-33.792;151.032;2023-07-22T04:47:12;101421.33;;;15.95;39.50
81905;BME280;71370;-33.792;151.032;2023-07-22T04:48:20;101417.29;;;15.94;39.60
81905;BME280;71370;-33.792;151.032;2023-07-22T04:49:31;101420.66;;;15.93;39.65
81905;BME280;71370;-33.792;151.032;2023-07-22T04:50:38;101419.30;;;15.91;39.53
81905;BME280;71370;-33.792;151.032;2023-07-22T04:51:47;101420.73;;;15.90;39.55
81905;BME280;71370;-33.792;151.032;2023-07-22T04:52:55;101419.88;;;15.90;39.64
81905;BME280;71370;-33.792;151.032;2023-07-22T04:54:02;101426.80;;;15.89;39.72
81905;BME280;71370;-33.792;151.032;2023-07-22T04:55:10;101426.81;;;15.89;39.66
81905;BME280;71370;-33.792;151.032;2023-07-22T04:56:17;101429.82;;;15.88;39.72
81905;BME280;71370;-33.792;151.032;2023-07-22T04:57:24;101437.11;;;15.88;39.87
81905;BME280;71370;-33.792;151.032;2023-07-22T04:58:31;101438.55;;;15.87;39.86
81905;BME280;71370;-33.792;151.032;2023-07-22T04:59:38;101434.84;;;15.87;39.82
81905;BME280;71370;-33.792;151.032;2023-07-22T05:00:45;101436.45;;;15.86;39.91
81905;BME280;71370;-33.792;151.032;2023-07-22T05:01:52;101438.79;;;15.85;40.09
81905;BME280;71370;-33.792;151.032;2023-07-22T05:02:59;101440.59;;;15.83;40.72
81905;BME280;71370;-33.792;151.032;2023-07-22T05:04:06;101432.30;;;15.81;40.93
81905;BME280;71370;-33.792;151.032;2023-07-22T05:05:13;101438.52;;;15.80;41.31
81905;BME280;71370;-33.792;151.032;2023-07-22T05:06:21;101435.55;;;15.79;41.36
81905;BME280;71370;-33.792;151.032;2023-07-22T05:07:28;101440.23;;;15.76;41.77
81905;BME280;71370;-33.792;151.032;2023-07-22T05:08:35;101439.03;;;15.74;41.66
81905;BME280;71370;-33.792;151.032;2023-07-22T05:09:44;101437.11;;;15.72;41.80
81905;BME280;71370;-33.792;151.032;2023-07-22T05:10:51;101437.35;;;15.69;41.82
81905;BME280;71370;-33.792;151.032;2023-07-22T05:11:58;101434.72;;;15.67;42.00
81905;BME280;71370;-33.792;151.032;2023-07-22T05:13:05;101434.73;;;15.67;41.96
81905;BME280;71370;-33.792;151.032;2023-07-22T05:14:12;101432.66;;;15.65;42.17
81905;BME280;71370;-33.792;151.032;2023-07-22T05:15:19;101435.16;;;15.64;42.24
81905;BME280;71370;-33.792;151.032;2023-07-22T05:16:27;101433.95;;;15.63;42.31
81905;BME280;71370;-33.792;151.032;2023-07-22T05:17:34;101432.02;;;15.62;42.43
81905;BME280;71370;-33.792;151.032;2023-07-22T05:18:41;101433.84;;;15.60;42.51
81905;BME280;71370;-33.792;151.032;2023-07-22T05:19:48;101434.91;;;15.60;42.51
81905;BME280;71370;-33.792;151.032;2023-07-22T05:20:55;101435.08;;;15.60;42.58
81905;BME280;71370;-33.792;151.032;2023-07-22T05:22:02;101433.85;;;15.59;42.58
81905;BME280;71370;-33.792;151.032;2023-07-22T05:23:10;101432.83;;;15.57;42.48
81905;BME280;71370;-33.792;151.032;2023-07-22T05:24:18;101436.92;;;15.57;42.60
81905;BME280;71370;-33.792;151.032;2023-07-22T05:25:27;101434.45;;;15.56;42.69
81905;BME280;71370;-33.792;151.032;2023-07-22T05:26:34;101436.77;;;15.55;42.60
81905;BME280;71370;-33.792;151.032;2023-07-22T05:27:41;101435.90;;;15.55;42.47
81905;BME280;71370;-33.792;151.032;2023-07-22T05:28:48;101434.85;;;15.54;42.63
81905;BME280;71370;-33.792;151.032;2023-07-22T05:29:55;101437.15;;;15.55;42.57
81905;BME280;71370;-33.792;151.032;2023-07-22T05:31:03;101437.50;;;15.55;42.79
81905;BME280;71370;-33.792;151.032;2023-07-22T05:32:10;101434.86;;;15.54;42.64
81905;BME280;71370;-33.792;151.032;2023-07-22T05:33:17;101437.17;;;15.54;42.61
81905;BME280;71370;-33.792;151.032;2023-07-22T05:34:24;101441.08;;;15.54;42.63
81905;BME280;71370;-33.792;151.032;2023-07-22T05:35:31;101441.61;;;15.53;42.35
81905;BME280;71370;-33.792;151.032;2023-07-22T05:36:39;101442.30;;;15.54;42.29
81905;BME280;71370;-33.792;151.032;2023-07-22T05:37:46;101439.84;;;15.53;42.49
81905;BME280;71370;-33.792;151.032;2023-07-22T05:38:53;101442.85;;;15.53;42.70
81905;BME280;71370;-33.792;151.032;2023-07-22T05:40:00;101441.80;;;15.53;42.88